sensor_id;sensor_type;location;lat;lon;timestamp;P1;durP1;ratioP1;P2;durP2;ratioP2
8001;SDS011;4046;48.774;8.732;2024-01-11T00:00:22;4.50;;;4.20;;
8001;SDS011;4046;48.774;8.732;2024-01-11T00:02:48;4.93;;;4.60;;
8001;SDS011;4046;48.774;8.732;2024-01-11T00:05:17;4.63;;;4.33;;
8001;SDS011;4046;48.774;8.732;2024-01-11T00:07:48;4.90;;;4.60;;
8001;SDS011;4046;48.774;8.732;2024-01-11T00:10:17;4.63;;;4.33;;
8001;SDS011;4046;48.774;8.732;2024-01-11T00:12:45;4.70;;;4.40;;
8001;SDS011;4046;48.774;8.732;2024-01-11T00:15:12;4.97;;;4.67;;
8001;SDS011;4046;48.774;8.732;2024-01-11T00:17:38;4.83;;;4.43;;
8001;SDS011;4046;48.774;8.732;2024-01-11T00:20:04;4.53;;;4.23;;
8001;SDS011;4046;48.774;8.732;2024-01-11T00:22:34;4.50;;;4.20;;
8001;SDS011;4046;48.774;8.732;2024-01-11T00:25:02;4.47;;;4.17;;
8001;SDS011;4046;48.774;8.732;2024-01-11T00:27:29;4.73;;;4.43;;
8001;SDS011;4046;48.774;8.732;2024-01-11T00:29:58;4.77;;;4.47;;
8001;SDS011;4046;48.774;8.732;2024-01-11T00:32:24;4.83;;;4.53;;
8001;SDS011;4046;48.774;8.732;2024-01-11T00:34:50;4.60;;;4.30;;
8001;SDS011;4046;48.774;8.732;2024-01-11T00:37:18;4.57;;;4.27;;
8001;SDS011;4046;48.774;8.732;2024-01-11T00:39:45;4.63;;;4.33;;
8001;SDS011;4046;48.774;8.732;2024-01-11T00:42:21;4.80;;;4.40;;
8001;SDS011;4046;48.774;8.732;2024-01-11T00:44:47;4.43;;;4.13;;
8001;SDS011;4046;48.774;8.732;2024-01-11T00:47:16;4.93;;;4.63;;
8001;SDS011;4046;48.774;8.732;2024-01-11T00:49:45;4.77;;;4.37;;
8001;SDS011;4046;48.774;8.732;2024-01-11T00:52:15;4.63;;;4.33;;
8001;SDS011;4046;48.774;8.732;2024-01-11T00:54:43;4.10;;;3.80;;
8001;SDS011;4046;48.774;8.732;2024-01-11T00:57:09;4.80;;;4.40;;
8001;SDS011;4046;48.774;8.732;2024-01-11T00:59:44;5.20;;;4.80;;
8001;SDS011;4046;48.774;8.732;2024-01-11T01:02:13;4.70;;;4.40;;
8001;SDS011;4046;48.774;8.732;2024-01-11T01:04:39;4.30;;;4.00;;
8001;SDS011;4046;48.774;8.732;2024-01-11T01:07:07;4.57;;;4.27;;
8001;SDS011;4046;48.774;8.732;2024-01-11T01:09:33;5.20;;;4.80;;
8001;SDS011;4046;48.774;8.732;2024-01-11T01:12:02;4.30;;;4.10;;
8001;SDS011;4046;48.774;8.732;2024-01-11T01:14:29;4.47;;;4.17;;
8001;SDS011;4046;48.774;8.732;2024-01-11T01:16:55;4.40;;;4.10;;
8001;SDS011;4046;48.774;8.732;2024-01-11T01:19:22;4.50;;;4.20;;
8001;SDS011;4046;48.774;8.732;2024-01-11T01:21:47;4.83;;;4.47;;
8001;SDS011;4046;48.774;8.732;2024-01-11T01:24:13;4.80;;;4.50;;
8001;SDS011;4046;48.774;8.732;2024-01-11T01:26:42;4.30;;;4.00;;
8001;SDS011;4046;48.774;8.732;2024-01-11T01:29:11;4.70;;;4.40;;
8001;SDS011;4046;48.774;8.732;2024-01-11T01:31:37;4.57;;;4.27;;
8001;SDS011;4046;48.774;8.732;2024-01-11T01:34:06;4.30;;;4.00;;
8001;SDS011;4046;48.774;8.732;2024-01-11T01:36:34;4.77;;;4.47;;
8001;SDS011;4046;48.774;8.732;2024-01-11T01:39:00;4.37;;;4.07;;
8001;SDS011;4046;48.774;8.732;2024-01-11T01:41:26;5.37;;;4.97;;
8001;SDS011;4046;48.774;8.732;2024-01-11T01:43:52;4.80;;;4.50;;
8001;SDS011;4046;48.774;8.732;2024-01-11T01:46:19;4.80;;;4.50;;
8001;SDS011;4046;48.774;8.732;2024-01-11T01:48:54;4.87;;;4.53;;
8001;SDS011;4046;48.774;8.732;2024-01-11T01:51:24;4.37;;;4.07;;
8001;SDS011;4046;48.774;8.732;2024-01-11T01:53:54;4.67;;;4.37;;
8001;SDS011;4046;48.774;8.732;2024-01-11T01:56:23;4.40;;;4.10;;
8001;SDS011;4046;48.774;8.732;2024-01-11T01:58:50;4.73;;;4.43;;
8001;SDS011;4046;48.774;8.732;2024-01-11T02:01:21;4.60;;;4.30;;
8001;SDS011;4046;48.774;8.732;2024-01-11T02:03:52;4.60;;;4.30;;
8001;SDS011;4046;48.774;8.732;2024-01-11T02:06:21;3.93;;;3.73;;
8001;SDS011;4046;48.774;8.732;2024-01-11T02:09:03;4.30;;;4.00;;
8001;SDS011;4046;48.774;8.732;2024-01-11T02:11:29;4.87;;;4.57;;
8001;SDS011;4046;48.774;8.732;2024-01-11T02:13:58;4.70;;;4.40;;
8001;SDS011;4046;48.774;8.732;2024-01-11T02:16:32;4.60;;;4.30;;
8001;SDS011;4046;48.774;8.732;2024-01-11T02:18:58;4.53;;;4.23;;
8001;SDS011;4046;48.774;8.732;2024-01-11T02:21:25;4.53;;;4.23;;
8001;SDS011;4046;48.774;8.732;2024-01-11T02:24:06;4.50;;;4.20;;
8001;SDS011;4046;48.774;8.732;2024-01-11T02:26:36;4.20;;;3.90;;
8001;SDS011;4046;48.774;8.732;2024-01-11T02:29:07;4.23;;;3.93;;
8001;SDS011;4046;48.774;8.732;2024-01-11T02:31:32;5.00;;;4.70;;
8001;SDS011;4046;48.774;8.732;2024-01-11T02:33:58;4.40;;;4.10;;
8001;SDS011;4046;48.774;8.732;2024-01-11T02:36:27;3.83;;;3.63;;
8001;SDS011;4046;48.774;8.732;2024-01-11T02:38:53;5.27;;;4.87;;
8001;SDS011;4046;48.774;8.732;2024-01-11T02:41:19;4.47;;;4.17;;
8001;SDS011;4046;48.774;8.732;2024-01-11T02:43:47;4.40;;;4.10;;
8001;SDS011;4046;48.774;8.732;2024-01-11T02:46:15;4.03;;;3.73;;
8001;SDS011;4046;48.774;8.732;2024-01-11T02:48:44;4.20;;;3.90;;
8001;SDS011;4046;48.774;8.732;2024-01-11T02:51:13;4.53;;;4.23;;
8001;SDS011;4046;48.774;8.732;2024-01-11T02:53:38;4.27;;;3.97;;
8001;SDS011;4046;48.774;8.732;2024-01-11T02:56:05;5.00;;;4.70;;
8001;SDS011;4046;48.774;8.732;2024-01-11T02:58:34;4.00;;;3.70;;
8001;SDS011;4046;48.774;8.732;2024-01-11T03:01:02;3.90;;;3.63;;
8001;SDS011;4046;48.774;8.732;2024-01-11T03:03:34;4.47;;;4.17;;
8001;SDS011;4046;48.774;8.732;2024-01-11T03:06:00;4.57;;;4.27;;
8001;SDS011;4046;48.774;8.732;2024-01-11T03:08:26;4.57;;;4.27;;
8001;SDS011;4046;48.774;8.732;2024-01-11T03:10:55;4.50;;;4.20;;
8001;SDS011;4046;48.774;8.732;2024-01-11T03:13:21;4.20;;;3.90;;
8001;SDS011;4046;48.774;8.732;2024-01-11T03:15:46;4.30;;;4.00;;
8001;SDS011;4046;48.774;8.732;2024-01-11T03:18:15;3.60;;;3.30;;
8001;SDS011;4046;48.774;8.732;2024-01-11T03:20:44;4.30;;;4.00;;
8001;SDS011;4046;48.774;8.732;2024-01-11T03:23:10;4.07;;;3.80;;
8001;SDS011;4046;48.774;8.732;2024-01-11T03:25:37;4.67;;;4.37;;
8001;SDS011;4046;48.774;8.732;2024-01-11T03:28:11;4.47;;;4.17;;
8001;SDS011;4046;48.774;8.732;2024-01-11T03:30:41;4.17;;;3.87;;
8001;SDS011;4046;48.774;8.732;2024-01-11T03:33:08;4.40;;;4.10;;
8001;SDS011;4046;48.774;8.732;2024-01-11T03:35:34;5.00;;;4.60;;
8001;SDS011;4046;48.774;8.732;2024-01-11T03:37:59;4.43;;;4.13;;
8001;SDS011;4046;48.774;8.732;2024-01-11T03:40:32;4.70;;;4.40;;
8001;SDS011;4046;48.774;8.732;2024-01-11T03:42:58;4.00;;;3.70;;
8001;SDS011;4046;48.774;8.732;2024-01-11T03:45:25;4.70;;;4.30;;
8001;SDS011;4046;48.774;8.732;2024-01-11T03:47:50;3.60;;;3.40;;
8001;SDS011;4046;48.774;8.732;2024-01-11T03:50:19;4.20;;;3.97;;
8001;SDS011;4046;48.774;8.732;2024-01-11T03:52:51;3.87;;;3.63;;
8001;SDS011;4046;48.774;8.732;2024-01-11T03:55:35;3.80;;;3.50;;
8001;SDS011;4046;48.774;8.732;2024-01-11T03:58:02;4.60;;;4.30;;
8001;SDS011;4046;48.774;8.732;2024-01-11T04:00:31;3.57;;;3.37;;
8001;SDS011;4046;48.774;8.732;2024-01-11T04:02:58;4.00;;;3.70;;
8001;SDS011;4046;48.774;8.732;2024-01-11T04:05:25;4.30;;;4.00;;
8001;SDS011;4046;48.774;8.732;2024-01-11T04:07:50;4.23;;;3.93;;
8001;SDS011;4046;48.774;8.732;2024-01-11T04:10:19;4.50;;;4.20;;
8001;SDS011;4046;48.774;8.732;2024-01-11T04:12:45;4.50;;;4.20;;
8001;SDS011;4046;48.774;8.732;2024-01-11T04:15:14;4.43;;;4.13;;
8001;SDS011;4046;48.774;8.732;2024-01-11T04:17:42;4.13;;;3.83;;
8001;SDS011;4046;48.774;8.732;2024-01-11T04:20:15;4.40;;;4.10;;
8001;SDS011;4046;48.774;8.732;2024-01-11T04:22:41;4.03;;;3.63;;
8001;SDS011;4046;48.774;8.732;2024-01-11T04:25:08;4.37;;;4.07;;
8001;SDS011;4046;48.774;8.732;2024-01-11T04:27:35;4.70;;;4.30;;
8001;SDS011;4046;48.774;8.732;2024-01-11T04:30:04;4.43;;;4.13;;
8001;SDS011;4046;48.774;8.732;2024-01-11T04:32:32;4.83;;;4.43;;
8001;SDS011;4046;48.774;8.732;2024-01-11T04:35:02;4.07;;;3.77;;
8001;SDS011;4046;48.774;8.732;2024-01-11T04:37:33;3.70;;;3.50;;
8001;SDS011;4046;48.774;8.732;2024-01-11T04:40:02;4.70;;;4.40;;
8001;SDS011;4046;48.774;8.732;2024-01-11T04:42:28;4.70;;;4.40;;
8001;SDS011;4046;48.774;8.732;2024-01-11T04:44:57;4.53;;;4.23;;
8001;SDS011;4046;48.774;8.732;2024-01-11T04:47:23;3.97;;;3.70;;
8001;SDS011;4046;48.774;8.732;2024-01-11T04:49:49;4.50;;;4.20;;
8001;SDS011;4046;48.774;8.732;2024-01-11T04:52:15;4.27;;;4.07;;
8001;SDS011;4046;48.774;8.732;2024-01-11T04:54:45;4.50;;;4.20;;
8001;SDS011;4046;48.774;8.732;2024-01-11T04:57:14;3.90;;;3.60;;
8001;SDS011;4046;48.774;8.732;2024-01-11T04:59:39;4.13;;;3.83;;
8001;SDS011;4046;48.774;8.732;2024-01-11T05:02:05;4.37;;;4.07;;
8001;SDS011;4046;48.774;8.732;2024-01-11T05:04:31;4.50;;;4.20;;
8001;SDS011;4046;48.774;8.732;2024-01-11T05:07:00;3.90;;;3.70;;
8001;SDS011;4046;48.774;8.732;2024-01-11T05:09:26;4.37;;;4.07;;
8001;SDS011;4046;48.774;8.732;2024-01-11T05:11:52;4.33;;;4.03;;
8001;SDS011;4046;48.774;8.732;2024-01-11T05:14:18;4.70;;;4.40;;
8001;SDS011;4046;48.774;8.732;2024-01-11T05:16:44;4.20;;;3.90;;
8001;SDS011;4046;48.774;8.732;2024-01-11T05:19:18;4.97;;;4.67;;
8001;SDS011;4046;48.774;8.732;2024-01-11T05:21:44;4.77;;;4.47;;
8001;SDS011;4046;48.774;8.732;2024-01-11T05:24:10;4.60;;;4.30;;
8001;SDS011;4046;48.774;8.732;2024-01-11T05:26:36;4.17;;;3.87;;
8001;SDS011;4046;48.774;8.732;2024-01-11T05:29:05;4.47;;;4.07;;
8001;SDS011;4046;48.774;8.732;2024-01-11T05:31:31;4.20;;;3.90;;
8001;SDS011;4046;48.774;8.732;2024-01-11T05:33:56;4.20;;;3.90;;
8001;SDS011;4046;48.774;8.732;2024-01-11T05:36:26;4.20;;;3.90;;
8001;SDS011;4046;48.774;8.732;2024-01-11T05:38:59;4.30;;;4.00;;
8001;SDS011;4046;48.774;8.732;2024-01-11T05:41:24;4.40;;;4.10;;
8001;SDS011;4046;48.774;8.732;2024-01-11T05:43:50;4.13;;;3.90;;
8001;SDS011;4046;48.774;8.732;2024-01-11T05:46:16;4.50;;;4.20;;
8001;SDS011;4046;48.774;8.732;2024-01-11T05:48:42;4.50;;;4.20;;
8001;SDS011;4046;48.774;8.732;2024-01-11T05:51:15;4.47;;;4.17;;
8001;SDS011;4046;48.774;8.732;2024-01-11T05:53:41;4.20;;;3.90;;
8001;SDS011;4046;48.774;8.732;2024-01-11T05:56:08;4.70;;;4.40;;
8001;SDS011;4046;48.774;8.732;2024-01-11T05:58:34;4.00;;;3.80;;
8001;SDS011;4046;48.774;8.732;2024-01-11T06:01:09;4.23;;;3.93;;
8001;SDS011;4046;48.774;8.732;2024-01-11T06:03:39;4.70;;;4.37;;
8001;SDS011;4046;48.774;8.732;2024-01-11T06:06:08;4.03;;;3.73;;
8001;SDS011;4046;48.774;8.732;2024-01-11T06:08:34;4.63;;;4.27;;
8001;SDS011;4046;48.774;8.732;2024-01-11T06:11:12;4.13;;;3.67;;
8001;SDS011;4046;48.774;8.732;2024-01-11T06:13:41;4.67;;;4.37;;
8001;SDS011;4046;48.774;8.732;2024-01-11T06:16:07;3.80;;;3.60;;
8001;SDS011;4046;48.774;8.732;2024-01-11T06:18:34;4.70;;;4.40;;
8001;SDS011;4046;48.774;8.732;2024-01-11T06:21:01;4.07;;;3.77;;
8001;SDS011;4046;48.774;8.732;2024-01-11T06:23:29;4.23;;;3.93;;
8001;SDS011;4046;48.774;8.732;2024-01-11T06:26:00;4.77;;;4.47;;
8001;SDS011;4046;48.774;8.732;2024-01-11T06:28:26;4.23;;;3.93;;
8001;SDS011;4046;48.774;8.732;2024-01-11T06:30:58;4.87;;;4.47;;
8001;SDS011;4046;48.774;8.732;2024-01-11T06:33:26;4.23;;;3.93;;
8001;SDS011;4046;48.774;8.732;2024-01-11T06:35:53;4.30;;;4.00;;
8001;SDS011;4046;48.774;8.732;2024-01-11T06:38:24;4.30;;;4.00;;
8001;SDS011;4046;48.774;8.732;2024-01-11T06:40:49;4.73;;;4.37;;
8001;SDS011;4046;48.774;8.732;2024-01-11T06:43:22;4.53;;;4.23;;
8001;SDS011;4046;48.774;8.732;2024-01-11T06:45:50;4.43;;;4.13;;
8001;SDS011;4046;48.774;8.732;2024-01-11T06:48:21;4.60;;;4.30;;
8001;SDS011;4046;48.774;8.732;2024-01-11T06:50:47;4.33;;;4.10;;
8001;SDS011;4046;48.774;8.732;2024-01-11T06:53:13;4.63;;;4.33;;
8001;SDS011;4046;48.774;8.732;2024-01-11T06:55:40;4.40;;;4.00;;
8001;SDS011;4046;48.774;8.732;2024-01-11T06:58:07;4.33;;;4.03;;
8001;SDS011;4046;48.774;8.732;2024-01-11T07:00:35;4.40;;;4.10;;
8001;SDS011;4046;48.774;8.732;2024-01-11T07:03:03;4.53;;;4.23;;
8001;SDS011;4046;48.774;8.732;2024-01-11T07:05:32;4.53;;;4.23;;
8001;SDS011;4046;48.774;8.732;2024-01-11T07:08:01;4.83;;;4.53;;
8001;SDS011;4046;48.774;8.732;2024-01-11T07:10:26;4.27;;;3.97;;
8001;SDS011;4046;48.774;8.732;2024-01-11T07:12:52;4.63;;;4.33;;
8001;SDS011;4046;48.774;8.732;2024-01-11T07:15:23;4.37;;;4.07;;
8001;SDS011;4046;48.774;8.732;2024-01-11T07:17:49;4.27;;;3.97;;
8001;SDS011;4046;48.774;8.732;2024-01-11T07:20:17;4.17;;;3.87;;
8001;SDS011;4046;48.774;8.732;2024-01-11T07:22:44;4.33;;;4.03;;
8001;SDS011;4046;48.774;8.732;2024-01-11T07:25:10;3.90;;;3.67;;
8001;SDS011;4046;48.774;8.732;2024-01-11T07:27:42;4.50;;;4.20;;
8001;SDS011;4046;48.774;8.732;2024-01-11T07:30:11;4.70;;;4.40;;
8001;SDS011;4046;48.774;8.732;2024-01-11T07:32:40;4.43;;;4.13;;
8001;SDS011;4046;48.774;8.732;2024-01-11T07:35:06;3.93;;;3.73;;
8001;SDS011;4046;48.774;8.732;2024-01-11T07:37:32;4.67;;;4.37;;
8001;SDS011;4046;48.774;8.732;2024-01-11T07:39:59;4.20;;;3.90;;
8001;SDS011;4046;48.774;8.732;2024-01-11T07:42:31;4.50;;;4.20;;
8001;SDS011;4046;48.774;8.732;2024-01-11T07:44:57;4.17;;;3.87;;
8001;SDS011;4046;48.774;8.732;2024-01-11T07:47:23;4.70;;;4.40;;
8001;SDS011;4046;48.774;8.732;2024-01-11T07:49:50;4.33;;;4.03;;
8001;SDS011;4046;48.774;8.732;2024-01-11T07:52:18;4.10;;;3.80;;
8001;SDS011;4046;48.774;8.732;2024-01-11T07:55:03;4.40;;;4.10;;
8001;SDS011;4046;48.774;8.732;2024-01-11T07:57:33;4.10;;;3.80;;
8001;SDS011;4046;48.774;8.732;2024-01-11T08:00:05;4.00;;;3.80;;
8001;SDS011;4046;48.774;8.732;2024-01-11T08:02:32;5.00;;;4.60;;
8001;SDS011;4046;48.774;8.732;2024-01-11T08:05:01;4.37;;;4.07;;
8001;SDS011;4046;48.774;8.732;2024-01-11T08:07:28;4.77;;;4.47;;
8001;SDS011;4046;48.774;8.732;2024-01-11T08:09:54;4.50;;;4.20;;
8001;SDS011;4046;48.774;8.732;2024-01-11T08:12:21;4.13;;;3.83;;
8001;SDS011;4046;48.774;8.732;2024-01-11T08:14:50;4.57;;;4.27;;
8001;SDS011;4046;48.774;8.732;2024-01-11T08:17:16;4.30;;;4.00;;
8001;SDS011;4046;48.774;8.732;2024-01-11T08:19:44;4.73;;;4.43;;
8001;SDS011;4046;48.774;8.732;2024-01-11T08:22:11;4.70;;;4.40;;
8001;SDS011;4046;48.774;8.732;2024-01-11T08:24:37;4.73;;;4.43;;
8001;SDS011;4046;48.774;8.732;2024-01-11T08:27:04;4.67;;;4.37;;
8001;SDS011;4046;48.774;8.732;2024-01-11T08:29:32;4.60;;;4.30;;
8001;SDS011;4046;48.774;8.732;2024-01-11T08:32:02;4.47;;;4.17;;
8001;SDS011;4046;48.774;8.732;2024-01-11T08:34:29;4.40;;;4.10;;
8001;SDS011;4046;48.774;8.732;2024-01-11T08:36:55;4.17;;;3.93;;
8001;SDS011;4046;48.774;8.732;2024-01-11T08:39:21;4.70;;;4.40;;
8001;SDS011;4046;48.774;8.732;2024-01-11T08:41:53;4.30;;;4.00;;
8001;SDS011;4046;48.774;8.732;2024-01-11T08:44:22;4.50;;;4.20;;
8001;SDS011;4046;48.774;8.732;2024-01-11T08:46:55;4.40;;;4.10;;
8001;SDS011;4046;48.774;8.732;2024-01-11T08:49:26;4.20;;;3.90;;
8001;SDS011;4046;48.774;8.732;2024-01-11T08:51:52;4.80;;;4.40;;
8001;SDS011;4046;48.774;8.732;2024-01-11T08:54:22;4.63;;;4.33;;
8001;SDS011;4046;48.774;8.732;2024-01-11T08:56:48;4.60;;;4.30;;
8001;SDS011;4046;48.774;8.732;2024-01-11T08:59:13;4.30;;;4.00;;
8001;SDS011;4046;48.774;8.732;2024-01-11T09:01:53;4.13;;;3.90;;
8001;SDS011;4046;48.774;8.732;2024-01-11T09:04:20;4.33;;;4.03;;
8001;SDS011;4046;48.774;8.732;2024-01-11T09:06:46;4.67;;;4.33;;
8001;SDS011;4046;48.774;8.732;2024-01-11T09:09:12;4.77;;;4.47;;
8001;SDS011;4046;48.774;8.732;2024-01-11T09:11:46;3.93;;;3.63;;
8001;SDS011;4046;48.774;8.732;2024-01-11T09:14:12;4.63;;;4.33;;
8001;SDS011;4046;48.774;8.732;2024-01-11T09:16:38;4.63;;;4.33;;
8001;SDS011;4046;48.774;8.732;2024-01-11T09:19:05;4.77;;;4.37;;
8001;SDS011;4046;48.774;8.732;2024-01-11T09:21:31;4.40;;;4.10;;
8001;SDS011;4046;48.774;8.732;2024-01-11T09:23:57;4.60;;;4.30;;
8001;SDS011;4046;48.774;8.732;2024-01-11T09:26:24;4.87;;;4.57;;
8001;SDS011;4046;48.774;8.732;2024-01-11T09:28:50;4.97;;;4.57;;
8001;SDS011;4046;48.774;8.732;2024-01-11T09:31:16;4.20;;;3.90;;
8001;SDS011;4046;48.774;8.732;2024-01-11T09:33:47;4.67;;;4.37;;
8001;SDS011;4046;48.774;8.732;2024-01-11T09:36:19;5.00;;;4.60;;
8001;SDS011;4046;48.774;8.732;2024-01-11T09:38:48;4.23;;;3.93;;
8001;SDS011;4046;48.774;8.732;2024-01-11T09:41:14;4.13;;;3.83;;
8001;SDS011;4046;48.774;8.732;2024-01-11T09:43:43;3.77;;;3.57;;
8001;SDS011;4046;48.774;8.732;2024-01-11T09:46:16;4.20;;;3.90;;
8001;SDS011;4046;48.774;8.732;2024-01-11T09:48:43;4.37;;;4.07;;
8001;SDS011;4046;48.774;8.732;2024-01-11T09:51:13;4.70;;;4.40;;
8001;SDS011;4046;48.774;8.732;2024-01-11T09:53:39;4.70;;;4.40;;
8001;SDS011;4046;48.774;8.732;2024-01-11T09:56:08;4.30;;;4.00;;
8001;SDS011;4046;48.774;8.732;2024-01-11T09:58:50;5.03;;;4.63;;
8001;SDS011;4046;48.774;8.732;2024-01-11T10:01:16;4.60;;;4.30;;
8001;SDS011;4046;48.774;8.732;2024-01-11T10:03:43;4.60;;;4.30;;
8001;SDS011;4046;48.774;8.732;2024-01-11T10:06:14;4.37;;;4.10;;
8001;SDS011;4046;48.774;8.732;2024-01-11T10:08:43;4.30;;;4.00;;
8001;SDS011;4046;48.774;8.732;2024-01-11T10:11:11;3.93;;;3.73;;
8001;SDS011;4046;48.774;8.732;2024-01-11T10:13:37;4.50;;;4.20;;
8001;SDS011;4046;48.774;8.732;2024-01-11T10:16:08;4.47;;;4.17;;
8001;SDS011;4046;48.774;8.732;2024-01-11T10:18:35;4.27;;;3.97;;
8001;SDS011;4046;48.774;8.732;2024-01-11T10:21:02;4.67;;;4.37;;
8001;SDS011;4046;48.774;8.732;2024-01-11T10:23:35;4.50;;;4.20;;
8001;SDS011;4046;48.774;8.732;2024-01-11T10:26:07;4.37;;;4.07;;
8001;SDS011;4046;48.774;8.732;2024-01-11T10:28:36;4.60;;;4.30;;
8001;SDS011;4046;48.774;8.732;2024-01-11T10:31:06;4.40;;;4.10;;
8001;SDS011;4046;48.774;8.732;2024-01-11T10:33:33;4.20;;;3.90;;
8001;SDS011;4046;48.774;8.732;2024-01-11T10:36:02;4.03;;;3.73;;
8001;SDS011;4046;48.774;8.732;2024-01-11T10:38:31;4.30;;;4.00;;
8001;SDS011;4046;48.774;8.732;2024-01-11T10:41:04;3.73;;;3.53;;
8001;SDS011;4046;48.774;8.732;2024-01-11T10:43:31;3.80;;;3.60;;
8001;SDS011;4046;48.774;8.732;2024-01-11T10:46:08;4.60;;;4.30;;
8001;SDS011;4046;48.774;8.732;2024-01-11T10:48:39;4.13;;;3.83;;
8001;SDS011;4046;48.774;8.732;2024-01-11T10:51:14;4.10;;;3.80;;
8001;SDS011;4046;48.774;8.732;2024-01-11T10:53:44;4.23;;;3.93;;
8001;SDS011;4046;48.774;8.732;2024-01-11T10:56:24;4.03;;;3.73;;
8001;SDS011;4046;48.774;8.732;2024-01-11T10:58:53;4.30;;;4.00;;
8001;SDS011;4046;48.774;8.732;2024-01-11T11:01:30;4.57;;;4.23;;
8001;SDS011;4046;48.774;8.732;2024-01-11T11:03:56;4.50;;;4.20;;
8001;SDS011;4046;48.774;8.732;2024-01-11T11:06:26;3.90;;;3.70;;
8001;SDS011;4046;48.774;8.732;2024-01-11T11:08:54;4.10;;;3.83;;
8001;SDS011;4046;48.774;8.732;2024-01-11T11:11:20;3.43;;;3.23;;
8001;SDS011;4046;48.774;8.732;2024-01-11T11:13:51;3.27;;;3.07;;
8001;SDS011;4046;48.774;8.732;2024-01-11T11:16:18;3.37;;;3.17;;
8001;SDS011;4046;48.774;8.732;2024-01-11T11:18:47;3.80;;;3.50;;
8001;SDS011;4046;48.774;8.732;2024-01-11T11:21:12;3.63;;;3.43;;
8001;SDS011;4046;48.774;8.732;2024-01-11T11:23:40;4.07;;;3.87;;
8001;SDS011;4046;48.774;8.732;2024-01-11T11:26:14;3.90;;;3.63;;
8001;SDS011;4046;48.774;8.732;2024-01-11T11:28:49;3.63;;;3.43;;
8001;SDS011;4046;48.774;8.732;2024-01-11T11:31:29;3.70;;;3.50;;
8001;SDS011;4046;48.774;8.732;2024-01-11T11:34:06;3.60;;;3.40;;
8001;SDS011;4046;48.774;8.732;2024-01-11T11:36:36;3.33;;;3.13;;
8001;SDS011;4046;48.774;8.732;2024-01-11T11:39:05;3.83;;;3.63;;
8001;SDS011;4046;48.774;8.732;2024-01-11T11:41:31;3.57;;;3.30;;
8001;SDS011;4046;48.774;8.732;2024-01-11T11:44:00;3.40;;;3.20;;
8001;SDS011;4046;48.774;8.732;2024-01-11T11:46:29;3.60;;;3.40;;
8001;SDS011;4046;48.774;8.732;2024-01-11T11:48:57;3.80;;;3.60;;
8001;SDS011;4046;48.774;8.732;2024-01-11T11:51:23;3.67;;;3.47;;
8001;SDS011;4046;48.774;8.732;2024-01-11T11:53:52;3.30;;;3.10;;
8001;SDS011;4046;48.774;8.732;2024-01-11T11:56:22;3.53;;;3.33;;
8001;SDS011;4046;48.774;8.732;2024-01-11T11:58:48;4.03;;;3.73;;
8001;SDS011;4046;48.774;8.732;2024-01-11T12:01:15;3.13;;;2.93;;
8001;SDS011;4046;48.774;8.732;2024-01-11T12:03:43;3.80;;;3.50;;
8001;SDS011;4046;48.774;8.732;2024-01-11T12:06:19;4.00;;;3.70;;
8001;SDS011;4046;48.774;8.732;2024-01-11T12:08:52;3.90;;;3.60;;
8001;SDS011;4046;48.774;8.732;2024-01-11T12:11:28;4.00;;;3.70;;
8001;SDS011;4046;48.774;8.732;2024-01-11T12:13:58;3.87;;;3.57;;
8001;SDS011;4046;48.774;8.732;2024-01-11T12:16:23;4.30;;;4.00;;
8001;SDS011;4046;48.774;8.732;2024-01-11T12:18:50;4.00;;;3.70;;
8001;SDS011;4046;48.774;8.732;2024-01-11T12:21:15;3.70;;;3.47;;
8001;SDS011;4046;48.774;8.732;2024-01-11T12:23:44;3.83;;;3.53;;
8001;SDS011;4046;48.774;8.732;2024-01-11T12:26:10;3.97;;;3.77;;
8001;SDS011;4046;48.774;8.732;2024-01-11T12:28:38;3.50;;;3.20;;
8001;SDS011;4046;48.774;8.732;2024-01-11T12:31:05;3.60;;;3.40;;
8001;SDS011;4046;48.774;8.732;2024-01-11T12:33:38;3.57;;;3.37;;
8001;SDS011;4046;48.774;8.732;2024-01-11T12:36:07;3.67;;;3.47;;
8001;SDS011;4046;48.774;8.732;2024-01-11T12:38:34;4.10;;;3.80;;
8001;SDS011;4046;48.774;8.732;2024-01-11T12:41:14;3.33;;;3.13;;
8001;SDS011;4046;48.774;8.732;2024-01-11T12:43:42;3.17;;;2.97;;
8001;SDS011;4046;48.774;8.732;2024-01-11T12:46:09;3.20;;;3.00;;
8001;SDS011;4046;48.774;8.732;2024-01-11T12:48:35;3.47;;;3.27;;
8001;SDS011;4046;48.774;8.732;2024-01-11T12:51:00;3.43;;;3.23;;
8001;SDS011;4046;48.774;8.732;2024-01-11T12:53:28;3.17;;;2.97;;
8001;SDS011;4046;48.774;8.732;2024-01-11T12:58:39;3.77;;;3.57;;
8001;SDS011;4046;48.774;8.732;2024-01-11T13:01:05;3.30;;;3.10;;
8001;SDS011;4046;48.774;8.732;2024-01-11T13:03:37;3.47;;;3.27;;
8001;SDS011;4046;48.774;8.732;2024-01-11T13:06:04;3.50;;;3.20;;
8001;SDS011;4046;48.774;8.732;2024-01-11T13:08:33;3.23;;;3.03;;
8001;SDS011;4046;48.774;8.732;2024-01-11T13:11:07;3.03;;;2.83;;
8001;SDS011;4046;48.774;8.732;2024-01-11T13:13:40;3.37;;;3.17;;
8001;SDS011;4046;48.774;8.732;2024-01-11T13:16:06;3.40;;;3.20;;
8001;SDS011;4046;48.774;8.732;2024-01-11T13:18:38;3.40;;;3.20;;
8001;SDS011;4046;48.774;8.732;2024-01-11T13:21:04;3.30;;;3.10;;
8001;SDS011;4046;48.774;8.732;2024-01-11T13:23:31;3.73;;;3.43;;
8001;SDS011;4046;48.774;8.732;2024-01-11T13:25:58;3.90;;;3.60;;
8001;SDS011;4046;48.774;8.732;2024-01-11T13:28:28;3.40;;;3.20;;
8001;SDS011;4046;48.774;8.732;2024-01-11T13:30:54;3.27;;;3.07;;
8001;SDS011;4046;48.774;8.732;2024-01-11T13:33:20;3.53;;;3.33;;
8001;SDS011;4046;48.774;8.732;2024-01-11T13:35:48;2.93;;;2.73;;
8001;SDS011;4046;48.774;8.732;2024-01-11T13:38:15;3.63;;;3.33;;
8001;SDS011;4046;48.774;8.732;2024-01-11T13:40:41;3.17;;;2.97;;
8001;SDS011;4046;48.774;8.732;2024-01-11T13:43:08;3.30;;;3.10;;
8001;SDS011;4046;48.774;8.732;2024-01-11T13:45:34;2.90;;;2.70;;
8001;SDS011;4046;48.774;8.732;2024-01-11T13:48:06;3.37;;;3.17;;
8001;SDS011;4046;48.774;8.732;2024-01-11T13:50:32;3.90;;;3.60;;
8001;SDS011;4046;48.774;8.732;2024-01-11T13:52:59;3.90;;;3.60;;
8001;SDS011;4046;48.774;8.732;2024-01-11T13:55:25;2.90;;;2.70;;
8001;SDS011;4046;48.774;8.732;2024-01-11T13:57:52;3.90;;;3.60;;
8001;SDS011;4046;48.774;8.732;2024-01-11T14:00:24;2.87;;;2.67;;
8001;SDS011;4046;48.774;8.732;2024-01-11T14:02:54;3.60;;;3.40;;
8001;SDS011;4046;48.774;8.732;2024-01-11T14:05:20;3.70;;;3.40;;
8001;SDS011;4046;48.774;8.732;2024-01-11T14:07:46;3.17;;;2.97;;
8001;SDS011;4046;48.774;8.732;2024-01-11T14:10:20;3.27;;;3.07;;
8001;SDS011;4046;48.774;8.732;2024-01-11T14:12:48;3.13;;;2.93;;
8001;SDS011;4046;48.774;8.732;2024-01-11T14:15:22;3.53;;;3.33;;
8001;SDS011;4046;48.774;8.732;2024-01-11T14:17:47;3.47;;;3.23;;
8001;SDS011;4046;48.774;8.732;2024-01-11T14:20:21;3.30;;;3.10;;
8001;SDS011;4046;48.774;8.732;2024-01-11T14:22:55;3.63;;;3.33;;
8001;SDS011;4046;48.774;8.732;2024-01-11T14:25:22;3.23;;;3.00;;
8001;SDS011;4046;48.774;8.732;2024-01-11T14:27:50;3.60;;;3.40;;
8001;SDS011;4046;48.774;8.732;2024-01-11T14:30:17;3.50;;;3.30;;
8001;SDS011;4046;48.774;8.732;2024-01-11T14:32:50;4.03;;;3.73;;
8001;SDS011;4046;48.774;8.732;2024-01-11T14:35:16;3.63;;;3.33;;
8001;SDS011;4046;48.774;8.732;2024-01-11T14:37:43;3.23;;;3.03;;
8001;SDS011;4046;48.774;8.732;2024-01-11T14:40:10;3.10;;;2.90;;
8001;SDS011;4046;48.774;8.732;2024-01-11T14:42:39;3.60;;;3.40;;
8001;SDS011;4046;48.774;8.732;2024-01-11T14:45:07;3.03;;;2.83;;
8001;SDS011;4046;48.774;8.732;2024-01-11T14:47:33;2.93;;;2.73;;
8001;SDS011;4046;48.774;8.732;2024-01-11T14:50:07;3.60;;;3.40;;
8001;SDS011;4046;48.774;8.732;2024-01-11T14:52:39;3.40;;;3.20;;
8001;SDS011;4046;48.774;8.732;2024-01-11T14:55:09;3.30;;;3.10;;
8001;SDS011;4046;48.774;8.732;2024-01-11T14:57:36;3.47;;;3.17;;
8001;SDS011;4046;48.774;8.732;2024-01-11T15:00:05;3.07;;;2.87;;
8001;SDS011;4046;48.774;8.732;2024-01-11T15:02:38;3.70;;;3.50;;
8001;SDS011;4046;48.774;8.732;2024-01-11T15:05:06;3.40;;;3.20;;
8001;SDS011;4046;48.774;8.732;2024-01-11T15:07:32;3.67;;;3.37;;
8001;SDS011;4046;48.774;8.732;2024-01-11T15:09:58;3.63;;;3.33;;
8001;SDS011;4046;48.774;8.732;2024-01-11T15:12:24;3.30;;;3.10;;
8001;SDS011;4046;48.774;8.732;2024-01-11T15:14:49;3.13;;;2.93;;
8001;SDS011;4046;48.774;8.732;2024-01-11T15:17:17;3.43;;;3.23;;
8001;SDS011;4046;48.774;8.732;2024-01-11T15:19:50;3.70;;;3.40;;
8001;SDS011;4046;48.774;8.732;2024-01-11T15:22:16;3.40;;;3.20;;
8001;SDS011;4046;48.774;8.732;2024-01-11T15:24:45;3.37;;;3.17;;